sensor_id;sensor_type;location;lat;lon;timestamp;temperature;humidity
1476;DHT22;730;48.870;12.542;2023-02-23T00:01:23;8.90;1.00
1476;DHT22;730;48.870;12.542;2023-02-23T00:03:52;8.90;1.00
1476;DHT22;730;48.870;12.542;2023-02-23T00:06:19;8.90;1.00
1476;DHT22;730;48.870;12.542;2023-02-23T00:08:45;8.80;1.00
1476;DHT22;730;48.870;12.542;2023-02-23T00:11:15;8.80;1.00
1476;DHT22;730;48.870;12.542;2023-02-23T00:13:43;8.80;1.00
1476;DHT22;730;48.870;12.542;2023-02-23T00:16:22;8.80;1.00
1476;DHT22;730;48.870;12.542;2023-02-23T00:18:50;8.80;1.00
1476;DHT22;730;48.870;12.542;2023-02-23T00:21:25;8.80;1.00
1476;DHT22;730;48.870;12.542;2023-02-23T00:23:54;8.80;1.30
1476;DHT22;730;48.870;12.542;2023-02-23T00:26:22;8.70;1.50
1476;DHT22;730;48.870;12.542;2023-02-23T00:28:49;8.70;3.00
1476;DHT22;730;48.870;12.542;2023-02-23T00:31:16;8.70;3.60
1476;DHT22;730;48.870;12.542;2023-02-23T00:33:42;8.70;4.10
1476;DHT22;730;48.870;12.542;2023-02-23T00:36:11;8.70;5.20
1476;DHT22;730;48.870;12.542;2023-02-23T00:38:39;8.70;5.50
1476;DHT22;730;48.870;12.542;2023-02-23T00:41:08;8.70;5.90
1476;DHT22;730;48.870;12.542;2023-02-23T00:43:38;8.70;6.50
1476;DHT22;730;48.870;12.542;2023-02-23T00:46:17;8.70;6.60
1476;DHT22;730;48.870;12.542;2023-02-23T00:48:48;8.70;6.80
1476;DHT22;730;48.870;12.542;2023-02-23T00:51:15;8.70;6.70
1476;DHT22;730;48.870;12.542;2023-02-23T00:53:44;8.70;6.50
1476;DHT22;730;48.870;12.542;2023-02-23T00:56:12;8.70;6.40
1476;DHT22;730;48.870;12.542;2023-02-23T00:58:39;8.70;6.20
1476;DHT22;730;48.870;12.542;2023-02-23T01:01:10;8.80;6.10
1476;DHT22;730;48.870;12.542;2023-02-23T01:03:38;8.80;6.10
1476;DHT22;730;48.870;12.542;2023-02-23T01:06:06;8.80;5.90
1476;DHT22;730;48.870;12.542;2023-02-23T01:08:43;8.80;5.50
1476;DHT22;730;48.870;12.542;2023-02-23T01:11:15;8.80;5.00
1476;DHT22;730;48.870;12.542;2023-02-23T01:13:44;8.90;4.70
1476;DHT22;730;48.870;12.542;2023-02-23T01:16:14;8.90;4.40
1476;DHT22;730;48.870;12.542;2023-02-23T01:18:42;8.90;3.90
1476;DHT22;730;48.870;12.542;2023-02-23T01:21:19;8.90;2.90
1476;DHT22;730;48.870;12.542;2023-02-23T01:23:45;8.80;1.90
1476;DHT22;730;48.870;12.542;2023-02-23T01:26:19;8.80;1.20
1476;DHT22;730;48.870;12.542;2023-02-23T01:28:51;8.80;1.50
1476;DHT22;730;48.870;12.542;2023-02-23T01:31:18;8.70;1.50
1476;DHT22;730;48.870;12.542;2023-02-23T01:33:44;8.70;1.80
1476;DHT22;730;48.870;12.542;2023-02-23T01:36:11;8.70;2.60
1476;DHT22;730;48.870;12.542;2023-02-23T01:38:40;8.60;2.90
1476;DHT22;730;48.870;12.542;2023-02-23T01:41:06;8.70;3.40
1476;DHT22;730;48.870;12.542;2023-02-23T01:43:34;8.60;3.50
1476;DHT22;730;48.870;12.542;2023-02-23T01:46:02;8.60;4.10
1476;DHT22;730;48.870;12.542;2023-02-23T01:48:33;8.60;4.30
1476;DHT22;730;48.870;12.542;2023-02-23T01:51:10;8.60;4.40
1476;DHT22;730;48.870;12.542;2023-02-23T01:53:40;8.60;4.30
1476;DHT22;730;48.870;12.542;2023-02-23T01:56:14;8.60;4.10
1476;DHT22;730;48.870;12.542;2023-02-23T01:58:47;8.60;4.20
1476;DHT22;730;48.870;12.542;2023-02-23T02:01:17;8.50;4.20
1476;DHT22;730;48.870;12.542;2023-02-23T02:03:50;8.50;4.10
1476;DHT22;730;48.870;12.542;2023-02-23T02:06:20;8.50;4.10
1476;DHT22;730;48.870;12.542;2023-02-23T02:08:51;8.50;4.10
1476;DHT22;730;48.870;12.542;2023-02-23T02:11:21;8.50;4.60
1476;DHT22;730;48.870;12.542;2023-02-23T02:14:21;8.50;4.80
1476;DHT22;730;48.870;12.542;2023-02-23T02:22:41;8.50;5.80
1476;DHT22;730;48.870;12.542;2023-02-23T02:31:23;8.50;5.20
1476;DHT22;730;48.870;12.542;2023-02-23T02:47:53;8.60;5.10
1476;DHT22;730;48.870;12.542;2023-02-23T02:50:46;8.60;5.00
1476;DHT22;730;48.870;12.542;2023-02-23T02:53:24;8.60;4.60
1476;DHT22;730;48.870;12.542;2023-02-23T02:55:53;8.60;4.30
1476;DHT22;730;48.870;12.542;2023-02-23T02:58:21;8.60;4.10
1476;DHT22;730;48.870;12.542;2023-02-23T03:00:50;8.60;3.90
1476;DHT22;730;48.870;12.542;2023-02-23T03:03:41;8.60;4.00
1476;DHT22;730;48.870;12.542;2023-02-23T03:15:50;8.60;3.00
1476;DHT22;730;48.870;12.542;2023-02-23T03:18:54;8.60;2.80
1476;DHT22;730;48.870;12.542;2023-02-23T03:21:50;8.60;2.60
1476;DHT22;730;48.870;12.542;2023-02-23T03:24:54;8.60;2.40
1476;DHT22;730;48.870;12.542;2023-02-23T03:27:48;8.50;2.20
1476;DHT22;730;48.870;12.542;2023-02-23T03:36:46;7.90;4.50
1476;DHT22;730;48.870;12.542;2023-02-23T03:39:44;7.70;5.00
1476;DHT22;730;48.870;12.542;2023-02-23T03:42:33;7.60;6.30
1476;DHT22;730;48.870;12.542;2023-02-23T03:45:22;7.60;6.40
1476;DHT22;730;48.870;12.542;2023-02-23T03:48:10;7.50;6.30
1476;DHT22;730;48.870;12.542;2023-02-23T03:51:01;7.40;6.80
1476;DHT22;730;48.870;12.542;2023-02-23T03:53:56;7.40;7.00
1476;DHT22;730;48.870;12.542;2023-02-23T03:56:45;7.50;7.00
1476;DHT22;730;48.870;12.542;2023-02-23T03:59:34;7.50;6.90
1476;DHT22;730;48.870;12.542;2023-02-23T04:02:22;7.60;6.40
1476;DHT22;730;48.870;12.542;2023-02-23T04:05:17;7.70;5.80
1476;DHT22;730;48.870;12.542;2023-02-23T04:08:05;7.80;5.50
1476;DHT22;730;48.870;12.542;2023-02-23T04:10:59;7.90;4.80
1476;DHT22;730;48.870;12.542;2023-02-23T04:13:48;7.90;3.90
1476;DHT22;730;48.870;12.542;2023-02-23T04:16:17;7.90;3.10
1476;DHT22;730;48.870;12.542;2023-02-23T04:18:44;8.00;2.70
1476;DHT22;730;48.870;12.542;2023-02-23T04:21:10;8.00;2.20
1476;DHT22;730;48.870;12.542;2023-02-23T04:23:37;8.00;1.80
1476;DHT22;730;48.870;12.542;2023-02-23T04:26:05;8.00;1.20
1476;DHT22;730;48.870;12.542;2023-02-23T04:28:31;8.00;1.00
1476;DHT22;730;48.870;12.542;2023-02-23T04:31:00;8.00;1.00
1476;DHT22;730;48.870;12.542;2023-02-23T04:33:27;8.10;1.00
1476;DHT22;730;48.870;12.542;2023-02-23T04:35:53;8.10;1.00
1476;DHT22;730;48.870;12.542;2023-02-23T04:38:20;8.10;1.00
1476;DHT22;730;48.870;12.542;2023-02-23T04:40:46;8.10;1.00
1476;DHT22;730;48.870;12.542;2023-02-23T04:43:13;8.10;1.00
1476;DHT22;730;48.870;12.542;2023-02-23T04:45:39;8.10;1.00
1476;DHT22;730;48.870;12.542;2023-02-23T04:48:06;8.10;1.00
1476;DHT22;730;48.870;12.542;2023-02-23T04:50:33;8.00;1.00
1476;DHT22;730;48.870;12.542;2023-02-23T04:53:05;8.00;1.00
1476;DHT22;730;48.870;12.542;2023-02-23T04:55:31;8.00;1.00
1476;DHT22;730;48.870;12.542;2023-02-23T04:57:59;8.00;1.00
1476;DHT22;730;48.870;12.542;2023-02-23T05:00:26;8.00;1.00
1476;DHT22;730;48.870;12.542;2023-02-23T05:02:55;8.00;1.00
1476;DHT22;730;48.870;12.542;2023-02-23T05:05:21;8.00;1.00
1476;DHT22;730;48.870;12.542;2023-02-23T05:07:47;8.00;1.00
1476;DHT22;730;48.870;12.542;2023-02-23T05:10:13;8.00;1.00
1476;DHT22;730;48.870;12.542;2023-02-23T05:12:39;7.90;1.00
1476;DHT22;730;48.870;12.542;2023-02-23T05:15:06;7.90;1.00
1476;DHT22;730;48.870;12.542;2023-02-23T05:17:32;7.90;1.00
1476;DHT22;730;48.870;12.542;2023-02-23T05:19:58;7.90;1.00
1476;DHT22;730;48.870;12.542;2023-02-23T05:22:24;7.90;1.00
1476;DHT22;730;48.870;12.542;2023-02-23T05:24:50;7.80;1.00
1476;DHT22;730;48.870;12.542;2023-02-23T05:27:16;7.80;1.00
1476;DHT22;730;48.870;12.542;2023-02-23T05:29:43;7.70;1.00
1476;DHT22;730;48.870;12.542;2023-02-23T05:32:09;7.70;1.00
1476;DHT22;730;48.870;12.542;2023-02-23T05:34:35;7.70;1.00
1476;DHT22;730;48.870;12.542;2023-02-23T05:37:04;7.70;1.00
1476;DHT22;730;48.870;12.542;2023-02-23T05:39:30;7.70;1.00
1476;DHT22;730;48.870;12.542;2023-02-23T05:41:56;7.70;1.00
1476;DHT22;730;48.870;12.542;2023-02-23T05:44:22;7.70;1.00
1476;DHT22;730;48.870;12.542;2023-02-23T05:46:49;7.70;1.00
1476;DHT22;730;48.870;12.542;2023-02-23T05:49:15;7.60;1.00
1476;DHT22;730;48.870;12.542;2023-02-23T05:51:41;7.60;1.00
1476;DHT22;730;48.870;12.542;2023-02-23T05:54:08;7.70;1.00
1476;DHT22;730;48.870;12.542;2023-02-23T05:56:35;7.70;1.00
1476;DHT22;730;48.870;12.542;2023-02-23T05:59:01;7.70;1.00
1476;DHT22;730;48.870;12.542;2023-02-23T06:01:32;7.60;1.00
1476;DHT22;730;48.870;12.542;2023-02-23T06:03:58;7.60;1.00
1476;DHT22;730;48.870;12.542;2023-02-23T06:06:25;7.70;1.00
1476;DHT22;730;48.870;12.542;2023-02-23T06:08:51;7.60;1.00
1476;DHT22;730;48.870;12.542;2023-02-23T06:11:18;7.60;1.00
1476;DHT22;730;48.870;12.542;2023-02-23T06:13:44;7.60;1.00
1476;DHT22;730;48.870;12.542;2023-02-23T06:16:10;7.60;1.00
1476;DHT22;730;48.870;12.542;2023-02-23T06:18:36;7.60;1.00
1476;DHT22;730;48.870;12.542;2023-02-23T06:21:02;7.60;1.00
1476;DHT22;730;48.870;12.542;2023-02-23T06:23:29;7.50;1.00
1476;DHT22;730;48.870;12.542;2023-02-23T06:25:56;7.50;1.00
1476;DHT22;730;48.870;12.542;2023-02-23T06:28:23;7.50;1.00
1476;DHT22;730;48.870;12.542;2023-02-23T06:30:53;7.50;1.00
1476;DHT22;730;48.870;12.542;2023-02-23T06:33:19;7.40;1.00
1476;DHT22;730;48.870;12.542;2023-02-23T06:35:45;7.40;1.00
1476;DHT22;730;48.870;12.542;2023-02-23T06:38:11;7.40;1.00
1476;DHT22;730;48.870;12.542;2023-02-23T06:40:38;7.40;1.00
1476;DHT22;730;48.870;12.542;2023-02-23T06:43:04;7.40;1.00
1476;DHT22;730;48.870;12.542;2023-02-23T06:45:31;7.40;1.00
1476;DHT22;730;48.870;12.542;2023-02-23T06:48:00;7.40;1.00
1476;DHT22;730;48.870;12.542;2023-02-23T06:50:27;7.50;1.00
1476;DHT22;730;48.870;12.542;2023-02-23T06:52:53;7.50;1.00
1476;DHT22;730;48.870;12.542;2023-02-23T06:55:21;7.50;1.00
1476;DHT22;730;48.870;12.542;2023-02-23T06:57:48;7.50;1.50
1476;DHT22;730;48.870;12.542;2023-02-23T07:00:14;7.50;2.30
1476;DHT22;730;48.870;12.542;2023-02-23T07:02:42;7.60;2.50
1476;DHT22;730;48.870;12.542;2023-02-23T07:05:10;7.60;2.50
1476;DHT22;730;48.870;12.542;2023-02-23T07:07:36;7.60;2.60
1476;DHT22;730;48.870;12.542;2023-02-23T07:10:03;7.70;2.70
1476;DHT22;730;48.870;12.542;2023-02-23T07:12:30;7.70;2.60
1476;DHT22;730;48.870;12.542;2023-02-23T07:14:56;7.70;2.50
1476;DHT22;730;48.870;12.542;2023-02-23T07:17:22;7.70;2.50
1476;DHT22;730;48.870;12.542;2023-02-23T07:19:48;7.70;2.20
1476;DHT22;730;48.870;12.542;2023-02-23T07:22:14;7.80;2.40
1476;DHT22;730;48.870;12.542;2023-02-23T07:24:40;7.80;2.60
1476;DHT22;730;48.870;12.542;2023-02-23T07:27:07;7.90;2.80
1476;DHT22;730;48.870;12.542;2023-02-23T07:29:33;7.90;2.90
1476;DHT22;730;48.870;12.542;2023-02-23T07:31:59;8.00;3.50
1476;DHT22;730;48.870;12.542;2023-02-23T07:34:25;8.00;3.30
1476;DHT22;730;48.870;12.542;2023-02-23T07:36:52;8.00;3.60
1476;DHT22;730;48.870;12.542;2023-02-23T07:39:18;8.10;3.90
1476;DHT22;730;48.870;12.542;2023-02-23T07:41:45;8.20;3.90
1476;DHT22;730;48.870;12.542;2023-02-23T07:44:11;8.20;4.10
1476;DHT22;730;48.870;12.542;2023-02-23T07:46:37;8.30;4.30
1476;DHT22;730;48.870;12.542;2023-02-23T07:49:04;8.30;4.50
1476;DHT22;730;48.870;12.542;2023-02-23T07:51:30;8.40;4.60
1476;DHT22;730;48.870;12.542;2023-02-23T07:54:00;8.50;4.50
1476;DHT22;730;48.870;12.542;2023-02-23T07:56:26;8.60;4.40
1476;DHT22;730;48.870;12.542;2023-02-23T07:58:52;8.60;4.30
1476;DHT22;730;48.870;12.542;2023-02-23T08:01:18;8.70;3.70
1476;DHT22;730;48.870;12.542;2023-02-23T08:03:44;8.80;3.80
1476;DHT22;730;48.870;12.542;2023-02-23T08:06:18;8.80;3.50
1476;DHT22;730;48.870;12.542;2023-02-23T08:08:44;8.80;3.40
1476;DHT22;730;48.870;12.542;2023-02-23T08:11:10;8.90;3.40
1476;DHT22;730;48.870;12.542;2023-02-23T08:13:37;8.90;3.00
1476;DHT22;730;48.870;12.542;2023-02-23T08:16:03;9.00;2.50
1476;DHT22;730;48.870;12.542;2023-02-23T08:18:29;9.00;2.70
1476;DHT22;730;48.870;12.542;2023-02-23T08:21:02;9.00;2.90
1476;DHT22;730;48.870;12.542;2023-02-23T08:23:33;9.10;2.90
1476;DHT22;730;48.870;12.542;2023-02-23T08:26:00;9.10;3.00
1476;DHT22;730;48.870;12.542;2023-02-23T08:28:27;9.30;3.00
1476;DHT22;730;48.870;12.542;2023-02-23T08:30:53;9.30;2.90
1476;DHT22;730;48.870;12.542;2023-02-23T08:33:20;9.40;2.50
1476;DHT22;730;48.870;12.542;2023-02-23T08:35:46;9.40;2.20
1476;DHT22;730;48.870;12.542;2023-02-23T08:38:12;9.50;2.40
1476;DHT22;730;48.870;12.542;2023-02-23T08:40:38;9.50;2.50
1476;DHT22;730;48.870;12.542;2023-02-23T08:43:04;9.60;2.20
1476;DHT22;730;48.870;12.542;2023-02-23T08:45:30;9.70;1.90
1476;DHT22;730;48.870;12.542;2023-02-23T08:47:57;9.70;1.40
1476;DHT22;730;48.870;12.542;2023-02-23T08:50:23;9.80;1.20
1476;DHT22;730;48.870;12.542;2023-02-23T08:52:49;9.80;1.00
1476;DHT22;730;48.870;12.542;2023-02-23T08:55:15;9.90;1.00
1476;DHT22;730;48.870;12.542;2023-02-23T08:57:43;9.90;1.00
1476;DHT22;730;48.870;12.542;2023-02-23T09:00:09;10.00;1.00
1476;DHT22;730;48.870;12.542;2023-02-23T09:02:43;10.10;1.00
1476;DHT22;730;48.870;12.542;2023-02-23T09:05:10;10.10;1.00
1476;DHT22;730;48.870;12.542;2023-02-23T09:07:37;10.20;1.00
1476;DHT22;730;48.870;12.542;2023-02-23T09:10:07;10.30;1.00
1476;DHT22;730;48.870;12.542;2023-02-23T09:12:35;10.30;1.00
1476;DHT22;730;48.870;12.542;2023-02-23T09:15:01;10.40;1.00
1476;DHT22;730;48.870;12.542;2023-02-23T09:17:29;10.40;1.00
1476;DHT22;730;48.870;12.542;2023-02-23T09:19:55;10.50;1.00
1476;DHT22;730;48.870;12.542;2023-02-23T09:22:21;10.60;1.00
1476;DHT22;730;48.870;12.542;2023-02-23T09:24:47;10.60;1.00
1476;DHT22;730;48.870;12.542;2023-02-23T09:27:13;10.70;1.00
1476;DHT22;730;48.870;12.542;2023-02-23T09:29:40;10.80;1.00
1476;DHT22;730;48.870;12.542;2023-02-23T09:32:07;11.00;1.00
1476;DHT22;730;48.870;12.542;2023-02-23T09:34:33;11.10;1.00
1476;DHT22;730;48.870;12.542;2023-02-23T09:37:03;11.20;1.00
1476;DHT22;730;48.870;12.542;2023-02-23T09:39:30;11.30;1.00
1476;DHT22;730;48.870;12.542;2023-02-23T09:42:05;11.50;1.00
1476;DHT22;730;48.870;12.542;2023-02-23T09:44:41;11.60;1.00
1476;DHT22;730;48.870;12.542;2023-02-23T09:49:59;11.90;1.00
1476;DHT22;730;48.870;12.542;2023-02-23T09:52:37;12.10;1.00
1476;DHT22;730;48.870;12.542;2023-02-23T09:55:09;12.30;1.00
1476;DHT22;730;48.870;12.542;2023-02-23T09:57:38;12.50;1.00
1476;DHT22;730;48.870;12.542;2023-02-23T10:00:39;12.70;1.00
1476;DHT22;730;48.870;12.542;2023-02-23T10:03:13;13.00;1.00
1476;DHT22;730;48.870;12.542;2023-02-23T10:05:49;13.20;1.00
1476;DHT22;730;48.870;12.542;2023-02-23T10:08:29;13.40;1.00
1476;DHT22;730;48.870;12.542;2023-02-23T10:11:24;13.60;1.00
1476;DHT22;730;48.870;12.542;2023-02-23T10:14:16;13.90;1.00
1476;DHT22;730;48.870;12.542;2023-02-23T10:22:00;14.70;1.00
1476;DHT22;730;48.870;12.542;2023-02-23T10:24:36;15.00;1.00
1476;DHT22;730;48.870;12.542;2023-02-23T10:27:09;15.20;1.00
1476;DHT22;730;48.870;12.542;2023-02-23T10:29:55;15.30;1.00
1476;DHT22;730;48.870;12.542;2023-02-23T10:32:44;15.40;1.00
1476;DHT22;730;48.870;12.542;2023-02-23T10:35:15;15.50;1.00
1476;DHT22;730;48.870;12.542;2023-02-23T10:37:41;15.70;1.00
1476;DHT22;730;48.870;12.542;2023-02-23T10:40:15;15.80;1.00
1476;DHT22;730;48.870;12.542;2023-02-23T10:42:42;15.90;1.00
1476;DHT22;730;48.870;12.542;2023-02-23T10:45:16;16.10;1.00
1476;DHT22;730;48.870;12.542;2023-02-23T10:48:28;16.20;1.00
1476;DHT22;730;48.870;12.542;2023-02-23T10:50:47;16.30;1.00
1476;DHT22;730;48.870;12.542;2023-02-23T10:53:26;16.40;1.00
1476;DHT22;730;48.870;12.542;2023-02-23T10:58:27;16.70;1.00
1476;DHT22;730;48.870;12.542;2023-02-23T11:00:59;16.80;1.00
1476;DHT22;730;48.870;12.542;2023-02-23T11:03:35;16.90;1.00
1476;DHT22;730;48.870;12.542;2023-02-23T11:06:03;17.10;1.00
1476;DHT22;730;48.870;12.542;2023-02-23T11:08:35;17.30;1.00
1476;DHT22;730;48.870;12.542;2023-02-23T11:11:05;17.40;1.00
1476;DHT22;730;48.870;12.542;2023-02-23T11:13:40;17.50;1.00
1476;DHT22;730;48.870;12.542;2023-02-23T11:16:09;17.50;1.00
1476;DHT22;730;48.870;12.542;2023-02-23T11:18:37;17.60;1.00
1476;DHT22;730;48.870;12.542;2023-02-23T11:21:12;17.50;1.00
1476;DHT22;730;48.870;12.542;2023-02-23T11:23:39;17.60;1.00
1476;DHT22;730;48.870;12.542;2023-02-23T11:26:28;17.50;1.00
1476;DHT22;730;48.870;12.542;2023-02-23T11:29:10;17.40;1.00
1476;DHT22;730;48.870;12.542;2023-02-23T11:31:37;17.40;1.00
1476;DHT22;730;48.870;12.542;2023-02-23T11:34:06;17.30;1.00
1476;DHT22;730;48.870;12.542;2023-02-23T11:36:34;17.30;1.00
1476;DHT22;730;48.870;12.542;2023-02-23T11:41:27;17.20;1.00
1476;DHT22;730;48.870;12.542;2023-02-23T11:43:58;17.10;1.00
1476;DHT22;730;48.870;12.542;2023-02-23T11:46:30;17.00;1.00
1476;DHT22;730;48.870;12.542;2023-02-23T11:48:59;17.00;1.00
1476;DHT22;730;48.870;12.542;2023-02-23T11:51:36;16.90;1.00
1476;DHT22;730;48.870;12.542;2023-02-23T11:54:04;16.80;1.00
1476;DHT22;730;48.870;12.542;2023-02-23T11:56:32;16.80;1.00
1476;DHT22;730;48.870;12.542;2023-02-23T11:59:04;16.90;1.00
1476;DHT22;730;48.870;12.542;2023-02-23T12:01:51;16.90;1.00
1476;DHT22;730;48.870;12.542;2023-02-23T12:04:35;16.90;1.00
1476;DHT22;730;48.870;12.542;2023-02-23T12:07:23;16.90;1.00
1476;DHT22;730;48.870;12.542;2023-02-23T12:10:18;16.90;1.00
1476;DHT22;730;48.870;12.542;2023-02-23T12:15:57;16.80;1.00
1476;DHT22;730;48.870;12.542;2023-02-23T12:18:58;16.80;1.00
1476;DHT22;730;48.870;12.542;2023-02-23T12:21:38;16.70;1.00
1476;DHT22;730;48.870;12.542;2023-02-23T12:24:17;16.70;1.00
1476;DHT22;730;48.870;12.542;2023-02-23T12:26:58;16.60;1.00
1476;DHT22;730;48.870;12.542;2023-02-23T12:29:40;16.60;1.00
1476;DHT22;730;48.870;12.542;2023-02-23T12:32:37;16.40;1.00
1476;DHT22;730;48.870;12.542;2023-02-23T12:35:28;16.40;1.00
1476;DHT22;730;48.870;12.542;2023-02-23T12:38:14;16.30;1.00
1476;DHT22;730;48.870;12.542;2023-02-23T12:40:42;16.40;1.00
1476;DHT22;730;48.870;12.542;2023-02-23T12:43:34;16.40;1.00
1476;DHT22;730;48.870;12.542;2023-02-23T12:46:11;16.50;1.00
1476;DHT22;730;48.870;12.542;2023-02-23T12:51:37;16.70;1.00
1476;DHT22;730;48.870;12.542;2023-02-23T12:54:04;16.80;1.00
1476;DHT22;730;48.870;12.542;2023-02-23T13:02:27;16.90;1.00
1476;DHT22;730;48.870;12.542;2023-02-23T13:13:34;16.70;1.00
1476;DHT22;730;48.870;12.542;2023-02-23T13:16:22;16.60;1.00
1476;DHT22;730;48.870;12.542;2023-02-23T13:19:19;16.50;1.00
1476;DHT22;730;48.870;12.542;2023-02-23T13:21:51;16.50;1.00
1476;DHT22;730;48.870;12.542;2023-02-23T13:24:23;16.50;1.00
1476;DHT22;730;48.870;12.542;2023-02-23T13:27:15;16.50;1.00
1476;DHT22;730;48.870;12.542;2023-02-23T13:29:44;16.50;1.00
1476;DHT22;730;48.870;12.542;2023-02-23T13:32:23;16.40;1.00
1476;DHT22;730;48.870;12.542;2023-02-23T13:34:56;16.40;1.00
1476;DHT22;730;48.870;12.542;2023-02-23T13:40:43;16.30;1.00
1476;DHT22;730;48.870;12.542;2023-02-23T13:43:24;16.30;1.00
1476;DHT22;730;48.870;12.542;2023-02-23T13:46:14;16.20;1.00
1476;DHT22;730;48.870;12.542;2023-02-23T13:48:56;16.10;1.00
1476;DHT22;730;48.870;12.542;2023-02-23T13:51:43;16.10;1.00
1476;DHT22;730;48.870;12.542;2023-02-23T13:56:43;16.00;1.00
1476;DHT22;730;48.870;12.542;2023-02-23T13:59:20;16.00;1.00
1476;DHT22;730;48.870;12.542;2023-02-23T14:01:49;16.00;1.00
1476;DHT22;730;48.870;12.542;2023-02-23T14:04:33;16.00;1.00
1476;DHT22;730;48.870;12.542;2023-02-23T14:09:38;16.00;1.00
1476;DHT22;730;48.870;12.542;2023-02-23T14:14:50;16.00;1.00
1476;DHT22;730;48.870;12.542;2023-02-23T14:22:29;15.90;1.00
1476;DHT22;730;48.870;12.542;2023-02-23T14:28:00;15.90;1.00
1476;DHT22;730;48.870;12.542;2023-02-23T14:30:28;15.90;1.00
1476;DHT22;730;48.870;12.542;2023-02-23T14:33:48;15.90;1.00
1476;DHT22;730;48.870;12.542;2023-02-23T14:41:24;15.70;1.00
1476;DHT22;730;48.870;12.542;2023-02-23T14:46:36;15.70;1.00
1476;DHT22;730;48.870;12.542;2023-02-23T14:49:06;15.70;1.00
1476;DHT22;730;48.870;12.542;2023-02-23T14:51:44;15.70;1.00
1476;DHT22;730;48.870;12.542;2023-02-23T14:54:29;15.70;1.00
1476;DHT22;730;48.870;12.542;2023-02-23T14:56:59;15.70;1.00
1476;DHT22;730;48.870;12.542;2023-02-23T14:59:28;15.60;1.00
1476;DHT22;730;48.870;12.542;2023-02-23T15:01:59;15.60;1.00
1476;DHT22;730;48.870;12.542;2023-02-23T15:04:26;15.60;1.00
1476;DHT22;730;48.870;12.542;2023-02-23T15:06:59;15.60;1.00
1476;DHT22;730;48.870;12.542;2023-02-23T15:09:38;15.60;1.00
1476;DHT22;730;48.870;12.542;2023-02-23T15:12:26;15.60;1.00
1476;DHT22;730;48.870;12.542;2023-02-23T15:14:56;15.50;1.00
1476;DHT22;730;48.870;12.542;2023-02-23T15:17:25;15.50;1.00
1476;DHT22;730;48.870;12.542;2023-02-23T15:19:55;15.60;1.00
1476;DHT22;730;48.870;12.542;2023-02-23T15:22:34;15.50;1.00
1476;DHT22;730;48.870;12.542;2023-02-23T15:25:51;15.50;1.00
1476;DHT22;730;48.870;12.542;2023-02-23T15:27:52;15.40;1.00
1476;DHT22;730;48.870;12.542;2023-02-23T15:32:44;15.40;1.00
1476;DHT22;730;48.870;12.542;2023-02-23T15:35:11;15.30;1.00
1476;DHT22;730;48.870;12.542;2023-02-23T15:37:45;15.30;1.00
1476;DHT22;730;48.870;12.542;2023-02-23T15:40:21;15.30;1.00
1476;DHT22;730;48.870;12.542;2023-02-23T15:42:53;15.20;1.00
1476;DHT22;730;48.870;12.542;2023-02-23T15:48:01;15.10;1.00
1476;DHT22;730;48.870;12.542;2023-02-23T15:50:40;15.00;1.00
1476;DHT22;730;48.870;12.542;2023-02-23T15:53:16;15.00;1.00
1476;DHT22;730;48.870;12.542;2023-02-23T15:55:46;15.00;1.00
1476;DHT22;730;48.870;12.542;2023-02-23T15:58:20;14.90;1.00
1476;DHT22;730;48.870;12.542;2023-02-23T16:06:25;14.80;1.00
1476;DHT22;730;48.870;12.542;2023-02-23T16:11:23;14.70;1.00
1476;DHT22;730;48.870;12.542;2023-02-23T16:13:51;14.70;1.00
1476;DHT22;730;48.870;12.542;2023-02-23T16:16:19;14.70;1.00
1476;DHT22;730;48.870;12.542;2023-02-23T16:18:56;14.60;1.00
1476;DHT22;730;48.870;12.542;2023-02-23T16:21:28;14.50;1.00
1476;DHT22;730;48.870;12.542;2023-02-23T16:24:05;14.50;1.00
1476;DHT22;730;48.870;12.542;2023-02-23T16:26:54;14.50;1.00
1476;DHT22;730;48.870;12.542;2023-02-23T16:29:35;14.40;1.00
1476;DHT22;730;48.870;12.542;2023-02-23T16:32:19;14.40;1.00
1476;DHT22;730;48.870;12.542;2023-02-23T16:34:54;14.30;1.00
1476;DHT22;730;48.870;12.542;2023-02-23T16:37:24;14.30;1.00
1476;DHT22;730;48.870;12.542;2023-02-23T16:39:53;14.30;1.00
1476;DHT22;730;48.870;12.542;2023-02-23T16:42:32;14.30;1.00
1476;DHT22;730;48.870;12.542;2023-02-23T16:44:59;14.20;1.00
1476;DHT22;730;48.870;12.542;2023-02-23T16:47:34;14.20;1.00
1476;DHT22;730;48.870;12.542;2023-02-23T16:50:18;14.10;1.00
1476;DHT22;730;48.870;12.542;2023-02-23T16:52:46;14.10;1.00
1476;DHT22;730;48.870;12.542;2023-02-23T16:55:13;14.10;1.00
1476;DHT22;730;48.870;12.542;2023-02-23T16:57:47;14.10;1.00
1476;DHT22;730;48.870;12.542;2023-02-23T17:00:23;14.00;1.00
1476;DHT22;730;48.870;12.542;2023-02-23T17:02:50;14.00;1.00
1476;DHT22;730;48.870;12.542;2023-02-23T17:05:19;13.90;1.00
1476;DHT22;730;48.870;12.542;2023-02-23T17:07:46;13.90;1.00
1476;DHT22;730;48.870;12.542;2023-02-23T17:10:22;13.90;1.00
1476;DHT22;730;48.870;12.542;2023-02-23T17:13:16;13.80;1.00
1476;DHT22;730;48.870;12.542;2023-02-23T17:15:42;13.70;1.00
1476;DHT22;730;48.870;12.542;2023-02-23T17:18:15;13.70;1.00
1476;DHT22;730;48.870;12.542;2023-02-23T17:20:41;13.70;1.00
1476;DHT22;730;48.870;12.542;2023-02-23T17:23:07;13.60;1.00
1476;DHT22;730;48.870;12.542;2023-02-23T17:25:33;13.60;1.00
1476;DHT22;730;48.870;12.542;2023-02-23T17:28:00;13.60;1.00
1476;DHT22;730;48.870;12.542;2023-02-23T17:30:27;13.50;1.00
1476;DHT22;730;48.870;12.542;2023-02-23T17:32:56;13.50;1.00
1476;DHT22;730;48.870;12.542;2023-02-23T17:35:23;13.50;1.00
1476;DHT22;730;48.870;12.542;2023-02-23T17:37:51;13.40;1.00
1476;DHT22;730;48.870;12.542;2023-02-23T17:40:23;13.40;1.00
1476;DHT22;730;48.870;12.542;2023-02-23T17:42:55;13.40;1.00
1476;DHT22;730;48.870;12.542;2023-02-23T17:45:22;13.30;1.00
1476;DHT22;730;48.870;12.542;2023-02-23T17:47:48;13.30;1.00
1476;DHT22;730;48.870;12.542;2023-02-23T17:50:14;13.30;1.00
1476;DHT22;730;48.870;12.542;2023-02-23T17:52:40;13.20;1.00
1476;DHT22;730;48.870;12.542;2023-02-23T17:55:07;13.20;1.00
1476;DHT22;730;48.870;12.542;2023-02-23T17:57:34;13.20;1.00
1476;DHT22;730;48.870;12.542;2023-02-23T18:00:01;13.10;1.00
1476;DHT22;730;48.870;12.542;2023-02-23T18:02:29;13.10;1.00
1476;DHT22;730;48.870;12.542;2023-02-23T18:04:57;13.10;1.00
1476;DHT22;730;48.870;12.542;2023-02-23T18:07:24;13.00;1.00
1476;DHT22;730;48.870;12.542;2023-02-23T18:09:50;13.00;1.00
1476;DHT22;730;48.870;12.542;2023-02-23T18:12:17;13.00;1.00
1476;DHT22;730;48.870;12.542;2023-02-23T18:14:45;13.00;1.00
1476;DHT22;730;48.870;12.542;2023-02-23T18:17:12;13.00;1.00
1476;DHT22;730;48.870;12.542;2023-02-23T18:19:38;12.90;1.00
1476;DHT22;730;48.870;12.542;2023-02-23T18:22:04;13.00;1.00
1476;DHT22;730;48.870;12.542;2023-02-23T18:24:31;12.90;1.00
1476;DHT22;730;48.870;12.542;2023-02-23T18:26:57;12.90;1.00
1476;DHT22;730;48.870;12.542;2023-02-23T18:29:26;12.90;1.00
1476;DHT22;730;48.870;12.542;2023-02-23T18:31:57;12.80;1.00
1476;DHT22;730;48.870;12.542;2023-02-23T18:34:25;12.80;1.00
1476;DHT22;730;48.870;12.542;2023-02-23T18:36:53;12.80;1.00
1476;DHT22;730;48.870;12.542;2023-02-23T18:39:20;12.80;1.00
1476;DHT22;730;48.870;12.542;2023-02-23T18:41:47;12.80;1.00
1476;DHT22;730;48.870;12.542;2023-02-23T18:44:15;12.70;1.00
1476;DHT22;730;48.870;12.542;2023-02-23T18:46:43;12.70;1.00
1476;DHT22;730;48.870;12.542;2023-02-23T18:49:18;12.60;1.00
1476;DHT22;730;48.870;12.542;2023-02-23T18:51:46;12.60;1.00
1476;DHT22;730;48.870;12.542;2023-02-23T18:54:12;12.60;1.00